createdAt,value
2018-07-12T00:00:53.842Z,59.57
2018-07-12T00:03:20.192Z,59.46
2018-07-12T00:05:46.454Z,59.69
2018-07-12T00:08:12.799Z,58.93
2018-07-12T00:10:39.137Z,58.87
2018-07-12T00:13:05.402Z,59.43
2018-07-12T00:15:32.157Z,59.86
2018-07-12T00:17:58.474Z,60.39
2018-07-12T00:20:25.233Z,60.48
2018-07-12T00:22:51.980Z,59.99
2018-07-12T00:25:18.310Z,59.16
2018-07-12T00:27:44.586Z,59.43
2018-07-12T00:30:11.031Z,59.04
2018-07-12T00:32:37.309Z,59.68
2018-07-12T00:35:03.665Z,60.11
2018-07-12T00:37:30.013Z,59.85
2018-07-12T00:39:56.329Z,60.55
2018-07-12T00:42:22.666Z,61.25
2018-07-12T00:44:48.994Z,60.94
2018-07-12T00:47:15.406Z,61.26
2018-07-12T00:49:41.781Z,61.20
2018-07-12T00:52:08.609Z,62.23
2018-07-12T00:54:34.881Z,62.13
2018-07-12T00:57:01.159Z,62.12
2018-07-12T00:59:27.497Z,62.22
2018-07-12T01:01:53.827Z,61.93
2018-07-12T01:04:20.103Z,61.71
2018-07-12T01:06:46.382Z,61.73
2018-07-12T01:09:12.645Z,62.06
2018-07-12T01:11:38.939Z,61.43
2018-07-12T01:14:05.214Z,61.58
2018-07-12T01:16:31.502Z,61.45
2018-07-12T01:18:57.770Z,61.24
2018-07-12T01:21:24.074Z,62.75
2018-07-12T01:23:50.401Z,62.04
2018-07-12T01:26:16.665Z,62.41
2018-07-12T01:28:42.960Z,62.14
2018-07-12T01:31:09.294Z,62.26
2018-07-12T01:33:35.605Z,62.82
2018-07-12T01:36:02.014Z,63.05
2018-07-12T01:38:28.233Z,63.70
2018-07-12T01:40:54.489Z,62.84
2018-07-12T01:43:20.851Z,62.52
2018-07-12T01:45:47.127Z,62.47
2018-07-12T01:48:13.510Z,62.48
2018-07-12T01:50:39.790Z,63.20
2018-07-12T01:53:06.072Z,63.32
2018-07-12T01:55:32.527Z,63.25
2018-07-12T01:57:58.906Z,63.12
2018-07-12T02:00:25.201Z,63.59
2018-07-12T02:02:51.491Z,63.52
2018-07-12T02:05:17.838Z,63.77
2018-07-12T02:07:44.101Z,64.26
2018-07-12T02:10:33.434Z,64.11
2018-07-12T02:12:59.982Z,64.43
2018-07-12T02:15:26.230Z,64.73
2018-07-12T02:17:52.579Z,64.70
2018-07-12T02:20:18.946Z,65.16
2018-07-12T02:22:45.288Z,65.22
2018-07-12T02:25:11.630Z,65.34
2018-07-12T02:27:37.914Z,65.32
2018-07-12T02:30:04.676Z,65.09
2018-07-12T02:32:31.018Z,65.69
2018-07-12T02:34:57.406Z,64.53
2018-07-12T02:37:23.682Z,65.07
2018-07-12T02:39:49.959Z,64.80
2018-07-12T02:42:16.281Z,65.14
2018-07-12T02:44:42.614Z,65.11
2018-07-12T02:47:08.911Z,65.32
2018-07-12T02:49:35.234Z,65.28
2018-07-12T02:52:01.533Z,65.17
2018-07-12T02:54:27.916Z,65.30
2018-07-12T02:56:54.222Z,65.36
2018-07-12T02:59:20.559Z,65.48
2018-07-12T03:01:46.886Z,65.81
2018-07-12T03:04:13.250Z,65.87
2018-07-12T03:06:39.575Z,66.17
2018-07-12T03:09:06.737Z,65.75
2018-07-12T03:11:33.105Z,65.61
2018-07-12T03:13:59.470Z,66.27
2018-07-12T03:16:25.729Z,66.11
2018-07-12T03:18:52.091Z,65.96
2018-07-12T03:21:18.942Z,66.55
2018-07-12T03:23:45.210Z,66.76
2018-07-12T03:26:11.536Z,67.00
2018-07-12T03:28:37.814Z,66.22
2018-07-12T03:31:04.206Z,66.60
2018-07-12T03:33:30.697Z,66.24
2018-07-12T03:35:56.965Z,66.00
2018-07-12T03:38:23.298Z,65.97
2018-07-12T03:40:49.566Z,65.67
2018-07-12T03:43:15.851Z,66.32
2018-07-12T03:45:42.206Z,66.48
2018-07-12T03:48:08.498Z,66.32
2018-07-12T03:50:34.930Z,64.58
2018-07-12T03:53:01.285Z,64.85
2018-07-12T03:55:28.124Z,64.40
2018-07-12T03:57:54.382Z,65.26
2018-07-12T04:00:20.738Z,64.48
2018-07-12T04:02:47.073Z,64.68
2018-07-12T04:05:13.331Z,64.60
2018-07-12T04:07:39.841Z,63.89
2018-07-12T04:10:33.223Z,63.32
2018-07-12T04:12:59.603Z,65.09
2018-07-12T04:15:25.859Z,63.75
2018-07-12T04:17:52.128Z,63.35
2018-07-12T04:20:18.417Z,63.27
2018-07-12T04:22:44.701Z,63.17
2018-07-12T04:25:10.959Z,62.66
2018-07-12T04:27:37.259Z,62.52
2018-07-12T04:30:03.536Z,62.62
2018-07-12T04:32:29.850Z,61.99
2018-07-12T04:34:56.206Z,61.91
2018-07-12T04:37:22.449Z,61.60
2018-07-12T04:39:48.730Z,61.49
2018-07-12T04:42:14.989Z,62.15
2018-07-12T04:44:41.751Z,63.44
2018-07-12T04:47:08.022Z,63.30
2018-07-12T04:49:34.279Z,63.64
2018-07-12T04:52:00.735Z,63.58
2018-07-12T04:54:27.672Z,64.17
2018-07-12T04:56:53.939Z,64.37
2018-07-12T04:59:20.854Z,63.36
2018-07-12T05:01:47.577Z,63.10
2018-07-12T05:04:13.931Z,63.58
2018-07-12T05:06:40.275Z,61.99
2018-07-12T05:09:07.922Z,62.47
2018-07-12T05:11:34.234Z,62.27
2018-07-12T05:14:00.523Z,61.68
2018-07-12T05:16:26.874Z,60.92
2018-07-12T05:18:53.214Z,59.90
2018-07-12T05:21:19.491Z,59.04
2018-07-12T05:23:45.785Z,60.05
2018-07-12T05:26:12.103Z,60.03
2018-07-12T05:28:38.915Z,60.37
2018-07-12T05:31:06.020Z,60.09
2018-07-12T05:33:32.327Z,60.40
2018-07-12T05:36:00.042Z,59.95
2018-07-12T05:38:27.799Z,60.08
2018-07-12T05:40:55.437Z,59.04
2018-07-12T05:43:23.083Z,58.02
2018-07-12T05:45:51.070Z,56.29
2018-07-12T05:48:18.742Z,57.46
2018-07-12T05:50:47.447Z,57.32
2018-07-12T05:53:16.209Z,57.28
2018-07-12T05:55:43.894Z,56.39
2018-07-12T05:58:11.553Z,56.51
2018-07-12T06:00:39.454Z,56.59
2018-07-12T06:03:07.135Z,57.54
2018-07-12T06:05:34.815Z,58.17
2018-07-12T06:08:02.565Z,57.24
2018-07-12T06:10:30.184Z,57.11
2018-07-12T06:13:00.479Z,56.21
2018-07-12T06:15:28.817Z,55.90
2018-07-12T06:17:56.462Z,55.27
2018-07-12T06:20:24.090Z,55.76
2018-07-12T06:22:52.301Z,56.71
2018-07-12T06:25:19.945Z,56.70
2018-07-12T06:27:47.604Z,57.69
2018-07-12T06:30:15.337Z,55.50
2018-07-12T06:32:43.043Z,55.76
2018-07-12T06:35:10.705Z,55.52
2018-07-12T06:37:38.324Z,53.89
2018-07-12T06:40:05.972Z,53.92
2018-07-12T06:42:33.662Z,53.94
2018-07-12T06:45:01.219Z,51.49
2018-07-12T06:47:28.883Z,51.16
2018-07-12T06:49:56.506Z,50.47
2018-07-12T06:52:24.210Z,49.89
2018-07-12T06:54:51.833Z,50.22
2018-07-12T06:57:19.550Z,49.86
2018-07-12T06:59:47.196Z,49.15
2018-07-12T07:02:14.877Z,49.17
2018-07-12T07:04:42.555Z,49.34
2018-07-12T07:07:10.932Z,48.48
2018-07-12T07:09:38.606Z,48.37
2018-07-12T07:12:06.450Z,49.36
2018-07-12T07:14:34.090Z,49.30
2018-07-12T07:17:01.768Z,49.53
2018-07-12T07:19:29.465Z,48.98
2018-07-12T07:21:57.162Z,49.09
2018-07-12T07:24:25.921Z,47.72
2018-07-12T07:26:53.648Z,47.79
2018-07-12T07:29:22.123Z,47.29
2018-07-12T07:31:49.734Z,46.26
2018-07-12T07:34:17.522Z,46.78
2018-07-12T07:36:45.151Z,45.41
2018-07-12T07:39:12.774Z,44.96
2018-07-12T07:41:40.580Z,44.63
2018-07-12T07:44:08.374Z,43.98
2018-07-12T07:46:35.975Z,44.42
2018-07-12T07:49:03.674Z,43.75
2018-07-12T07:51:31.282Z,43.49
2018-07-12T07:53:58.942Z,42.59
2018-07-12T07:56:26.625Z,43.13
2018-07-12T07:58:54.223Z,43.42
2018-07-12T08:01:21.959Z,42.85
2018-07-12T08:03:49.602Z,42.40
2018-07-12T08:06:17.250Z,42.27
2018-07-12T08:08:44.947Z,42.94
2018-07-12T08:11:12.559Z,42.18
2018-07-12T08:13:40.283Z,43.21
2018-07-12T08:16:07.925Z,43.14
2018-07-12T08:18:35.506Z,43.17
2018-07-12T08:21:04.363Z,43.27
2018-07-12T08:23:32.179Z,42.38
2018-07-12T08:25:59.802Z,43.01
2018-07-12T08:28:29.123Z,42.59
2018-07-12T08:30:56.725Z,41.15
2018-07-12T08:33:24.717Z,41.39
2018-07-12T08:35:52.462Z,40.48
2018-07-12T08:38:20.298Z,39.78
2018-07-12T08:40:48.033Z,39.47
2018-07-12T08:43:15.740Z,40.89
2018-07-12T08:45:43.975Z,40.86
2018-07-12T08:48:11.662Z,41.04
2018-07-12T08:50:39.350Z,39.33
2018-07-12T08:53:07.484Z,40.42
2018-07-12T08:55:35.131Z,41.05
2018-07-12T08:58:02.797Z,39.19
2018-07-12T09:00:30.463Z,39.51
2018-07-12T09:02:58.085Z,40.16
2018-07-12T09:05:25.758Z,40.80
2018-07-12T09:07:53.534Z,39.85
2018-07-12T09:10:34.077Z,40.46
2018-07-12T09:13:01.817Z,40.37
2018-07-12T09:15:29.425Z,40.02
2018-07-12T09:17:57.106Z,40.43
2018-07-12T09:20:24.742Z,40.49
2018-07-12T09:22:52.418Z,39.29
2018-07-12T09:25:20.208Z,39.72
2018-07-12T09:27:47.800Z,39.66
2018-07-12T09:30:15.426Z,40.66
2018-07-12T09:32:43.058Z,40.25
2018-07-12T09:35:10.670Z,40.77
2018-07-12T09:37:38.487Z,40.63
2018-07-12T09:40:06.165Z,39.63
2018-07-12T09:42:34.075Z,40.14
2018-07-12T09:45:01.846Z,39.15
2018-07-12T09:47:29.489Z,40.38
2018-07-12T09:49:57.143Z,39.93
2018-07-12T09:52:30.813Z,38.68
2018-07-12T09:54:58.510Z,38.96
2018-07-12T09:57:43.686Z,39.91
2018-07-12T10:00:11.542Z,38.66
2018-07-12T10:02:44.942Z,39.34
2018-07-12T10:05:18.269Z,40.09
2018-07-12T10:07:54.500Z,40.13
2018-07-12T10:10:38.676Z,39.87
2018-07-12T10:13:32.145Z,39.39
2018-07-12T10:16:02.768Z,38.13
2018-07-12T10:18:31.071Z,38.23
2018-07-12T10:20:59.046Z,38.25
2018-07-12T10:23:26.849Z,37.80
2018-07-12T10:25:54.931Z,38.22
2018-07-12T10:28:22.642Z,37.17
2018-07-12T10:30:50.313Z,38.30
2018-07-12T10:33:18.457Z,37.81
2018-07-12T10:35:46.291Z,38.16
2018-07-12T10:38:13.921Z,39.14
2018-07-12T10:40:41.934Z,39.15
2018-07-12T10:43:09.592Z,38.55
2018-07-12T10:45:37.253Z,38.07
2018-07-12T10:48:05.174Z,37.77
2018-07-12T10:50:32.876Z,37.98
2018-07-12T10:53:00.595Z,38.00
2018-07-12T10:55:28.262Z,39.66
2018-07-12T10:57:55.882Z,39.05
2018-07-12T11:00:23.602Z,38.16
2018-07-12T11:02:51.177Z,38.00
2018-07-12T11:05:19.074Z,39.35
2018-07-12T11:07:46.683Z,36.14
2018-07-12T11:10:33.890Z,37.26
2018-07-12T11:13:13.073Z,38.51
2018-07-12T11:15:40.823Z,35.64
2018-07-12T11:18:09.169Z,36.40
2018-07-12T11:20:36.952Z,36.85
2018-07-12T11:23:04.750Z,38.38
2018-07-12T11:25:32.407Z,37.83
2018-07-12T11:28:00.399Z,36.39
2018-07-12T11:30:28.055Z,37.69
2018-07-12T11:32:55.680Z,36.91
2018-07-12T11:35:23.414Z,38.18
2018-07-12T11:37:51.125Z,37.17
2018-07-12T11:40:18.794Z,37.60
2018-07-12T11:42:46.495Z,37.77
2018-07-12T11:45:14.154Z,37.24
2018-07-12T11:47:41.782Z,37.59
2018-07-12T11:50:09.390Z,35.47
2018-07-12T11:52:37.012Z,36.63
2018-07-12T11:55:04.780Z,36.35
2018-07-12T11:57:32.445Z,35.70
2018-07-12T12:00:06.805Z,35.71
2018-07-12T12:02:34.503Z,36.58
2018-07-12T12:05:02.259Z,36.62
2018-07-12T12:07:30.389Z,37.24
2018-07-12T12:09:58.090Z,35.73
2018-07-12T12:12:25.949Z,36.11
2018-07-12T12:14:53.665Z,34.63
2018-07-12T12:17:21.304Z,33.65
2018-07-12T12:19:49.223Z,32.43
2018-07-12T12:22:16.948Z,34.15
2018-07-12T12:24:44.591Z,31.51
2018-07-12T12:27:13.230Z,32.69
2018-07-12T12:29:40.954Z,32.65
2018-07-12T12:32:08.569Z,31.86
2018-07-12T12:34:36.265Z,30.05
2018-07-12T12:37:03.971Z,30.88
2018-07-12T12:39:31.602Z,30.60
2018-07-12T12:41:59.356Z,29.47
2018-07-12T12:44:27.119Z,28.42
2018-07-12T12:46:54.773Z,29.29
2018-07-12T12:49:22.422Z,29.49
2018-07-12T12:51:50.060Z,29.66
2018-07-12T12:54:17.788Z,29.90
2018-07-12T12:56:45.590Z,30.22
2018-07-12T12:59:13.250Z,31.57
2018-07-12T13:01:40.914Z,30.45
2018-07-12T13:04:09.545Z,31.90
2018-07-12T13:06:37.194Z,31.69
2018-07-12T13:09:06.342Z,32.38
2018-07-12T13:11:34.057Z,31.61
2018-07-12T13:14:01.794Z,30.50
2018-07-12T13:16:29.530Z,30.31
2018-07-12T13:18:57.178Z,30.55
2018-07-12T13:21:24.787Z,29.51
2018-07-12T13:23:52.537Z,30.27
2018-07-12T13:26:20.182Z,30.07
2018-07-12T13:28:47.819Z,29.91
2018-07-12T13:31:15.550Z,30.64
2018-07-12T13:33:43.266Z,31.01
2018-07-12T13:36:10.972Z,30.99
2018-07-12T13:38:38.568Z,31.33
2018-07-12T13:41:06.418Z,31.15
2018-07-12T13:43:34.058Z,31.04
2018-07-12T13:46:01.770Z,31.17
2018-07-12T13:48:29.382Z,31.46
2018-07-12T13:50:57.125Z,30.67
2018-07-12T13:53:24.839Z,30.56
2018-07-12T13:55:52.531Z,31.83
2018-07-12T13:58:20.198Z,31.16
2018-07-12T14:00:47.801Z,31.39
2018-07-12T14:03:15.510Z,31.17
2018-07-12T14:05:43.530Z,29.97
2018-07-12T14:08:11.233Z,30.61
2018-07-12T14:10:39.171Z,30.82
2018-07-12T14:13:06.819Z,30.60
2018-07-12T14:15:34.526Z,30.78
2018-07-12T14:18:02.230Z,30.90
2018-07-12T14:20:29.858Z,31.32
2018-07-12T14:22:57.523Z,31.86
2018-07-12T14:25:25.146Z,31.13
2018-07-12T14:27:52.839Z,31.63
2018-07-12T14:30:20.443Z,32.73
2018-07-12T14:32:48.053Z,32.16
2018-07-12T14:35:15.730Z,33.89
2018-07-12T14:37:43.354Z,33.46
2018-07-12T14:40:10.995Z,32.89
2018-07-12T14:42:38.622Z,32.28
2018-07-12T14:45:06.291Z,33.07
2018-07-12T14:47:34.007Z,32.17
2018-07-12T14:50:01.722Z,33.17
2018-07-12T14:52:29.384Z,33.75
2018-07-12T14:54:57.110Z,32.64
2018-07-12T14:57:24.727Z,33.03
2018-07-12T14:59:52.357Z,33.06
2018-07-12T15:02:20.061Z,32.20
2018-07-12T15:04:47.679Z,32.69
2018-07-12T15:07:15.360Z,31.83
2018-07-12T15:09:43.026Z,33.21
2018-07-12T15:12:10.714Z,31.63
2018-07-12T15:14:38.362Z,31.83
2018-07-12T15:17:06.071Z,32.87
2018-07-12T15:19:33.802Z,33.01
2018-07-12T15:22:01.435Z,32.23
2018-07-12T15:24:29.270Z,31.59
2018-07-12T15:26:56.902Z,31.91
2018-07-12T15:29:24.541Z,31.23
2018-07-12T15:31:54.838Z,31.50
2018-07-12T15:34:22.610Z,31.79
2018-07-12T15:36:50.738Z,31.88
2018-07-12T15:39:18.508Z,31.32
2018-07-12T15:41:46.200Z,33.25
2018-07-12T15:44:13.976Z,33.44
2018-07-12T15:46:41.650Z,31.76
2018-07-12T15:49:09.290Z,32.34
2018-07-12T15:51:36.986Z,34.60
2018-07-12T15:54:04.650Z,33.88
2018-07-12T15:56:32.313Z,32.97
2018-07-12T15:58:59.984Z,34.24
2018-07-12T16:01:27.634Z,34.55
2018-07-12T16:03:55.294Z,35.16
2018-07-12T16:06:23.122Z,35.12
2018-07-12T16:08:51.061Z,34.72
2018-07-12T16:11:18.842Z,35.68
2018-07-12T16:13:46.457Z,34.68
2018-07-12T16:16:14.233Z,34.51
2018-07-12T16:18:41.830Z,35.19
2018-07-12T16:21:09.451Z,34.52
2018-07-12T16:23:37.059Z,34.57
2018-07-12T16:26:04.793Z,34.50
2018-07-12T16:28:32.402Z,33.41
2018-07-12T16:31:00.266Z,34.89
2018-07-12T16:33:27.903Z,35.42
2018-07-12T16:35:55.659Z,34.10
2018-07-12T16:38:23.462Z,35.26
2018-07-12T16:40:51.122Z,34.99
2018-07-12T16:43:18.810Z,34.41
2018-07-12T16:45:46.541Z,34.23
2018-07-12T16:48:14.804Z,34.05
2018-07-12T16:50:42.547Z,34.07
2018-07-12T16:53:10.174Z,34.70
2018-07-12T16:55:37.854Z,33.78
2018-07-12T16:58:05.599Z,33.50
2018-07-12T17:00:33.263Z,33.97
2018-07-12T17:03:01.064Z,34.49
2018-07-12T17:05:28.750Z,33.97
2018-07-12T17:07:56.458Z,34.50
2018-07-12T17:10:33.934Z,34.49
2018-07-12T17:13:01.633Z,34.89
2018-07-12T17:15:29.272Z,34.89
2018-07-12T17:17:57.035Z,34.26
2018-07-12T17:20:24.966Z,35.05
2018-07-12T17:22:52.727Z,36.12
2018-07-12T17:25:20.378Z,36.72
2018-07-12T17:27:48.102Z,36.72
2018-07-12T17:30:15.766Z,36.26
2018-07-12T17:32:43.385Z,36.80
2018-07-12T17:35:11.102Z,37.05
2018-07-12T17:37:38.853Z,36.39
2018-07-12T17:40:06.559Z,35.87
2018-07-12T17:42:34.246Z,35.99
2018-07-12T17:45:01.866Z,36.43
2018-07-12T17:47:29.545Z,36.79
2018-07-12T17:49:57.226Z,36.33
2018-07-12T17:52:26.030Z,36.36
2018-07-12T17:54:53.894Z,36.87
2018-07-12T17:57:21.536Z,36.44
2018-07-12T17:59:49.306Z,37.08
2018-07-12T18:02:16.934Z,36.53
2018-07-12T18:04:44.562Z,36.89
2018-07-12T18:07:12.170Z,37.07
2018-07-12T18:09:39.818Z,37.08
2018-07-12T18:12:07.450Z,37.57
2018-07-12T18:14:35.129Z,37.23
2018-07-12T18:17:02.741Z,37.59
2018-07-12T18:19:30.460Z,37.22
2018-07-12T18:21:58.252Z,37.28
2018-07-12T18:24:26.263Z,37.70
2018-07-12T18:26:53.993Z,37.24
2018-07-12T18:29:21.601Z,37.01
2018-07-12T18:31:49.304Z,38.10
2018-07-12T18:34:16.962Z,37.96
2018-07-12T18:36:44.567Z,37.99
2018-07-12T18:39:12.337Z,39.29
2018-07-12T18:41:39.965Z,38.18
2018-07-12T18:44:07.685Z,38.60
2018-07-12T18:46:35.314Z,39.77
2018-07-12T18:49:03.020Z,39.63
2018-07-12T18:51:30.697Z,38.90
2018-07-12T18:53:58.293Z,39.46
2018-07-12T18:56:26.150Z,40.68
2018-07-12T18:58:53.777Z,39.78
2018-07-12T19:01:21.507Z,40.51
2018-07-12T19:03:49.094Z,40.27
2018-07-12T19:06:16.724Z,41.36
2018-07-12T19:08:44.656Z,41.37
2018-07-12T19:11:12.318Z,41.95
2018-07-12T19:13:39.909Z,41.57
2018-07-12T19:16:07.646Z,41.98
2018-07-12T19:18:35.394Z,42.19
2018-07-12T19:21:03.012Z,41.65
2018-07-12T19:23:30.738Z,43.26
2018-07-12T19:25:58.350Z,44.07
2018-07-12T19:28:26.102Z,44.57
2018-07-12T19:30:53.792Z,43.52
2018-07-12T19:33:21.490Z,44.55
2018-07-12T19:35:49.373Z,44.34
2018-07-12T19:38:17.113Z,45.29
2018-07-12T19:40:44.958Z,46.00
2018-07-12T19:43:12.691Z,45.58
2018-07-12T19:45:40.964Z,45.06
2018-07-12T19:48:09.107Z,46.41
2018-07-12T19:50:36.706Z,46.51
2018-07-12T19:53:04.350Z,46.73
2018-07-12T19:55:32.393Z,47.07
2018-07-12T19:58:00.172Z,47.13
2018-07-12T20:00:27.794Z,47.18
2018-07-12T20:02:55.431Z,46.82
2018-07-12T20:05:23.041Z,47.33
2018-07-12T20:07:50.674Z,47.16
2018-07-12T20:10:34.465Z,47.35
2018-07-12T20:13:02.091Z,47.99
2018-07-12T20:15:29.844Z,47.89
2018-07-12T20:18:09.703Z,47.43
2018-07-12T20:20:37.467Z,48.02
2018-07-12T20:23:05.152Z,48.57
2018-07-12T20:25:32.787Z,48.01
2018-07-12T20:28:00.435Z,48.78
2018-07-12T20:30:28.197Z,48.19
2018-07-12T20:32:55.830Z,48.48
2018-07-12T20:35:23.522Z,49.15
2018-07-12T20:37:51.205Z,48.97
2018-07-12T20:40:18.856Z,49.35
2018-07-12T20:42:47.026Z,49.02
2018-07-12T20:45:14.673Z,48.91
2018-07-12T20:47:42.309Z,49.92
2018-07-12T20:50:10.010Z,49.51
2018-07-12T20:52:37.717Z,49.42
2018-07-12T20:55:05.526Z,49.81
2018-07-12T20:57:33.351Z,50.52
2018-07-12T21:00:01.053Z,50.90
2018-07-12T21:02:28.650Z,50.84
2018-07-12T21:04:57.055Z,50.69
2018-07-12T21:07:26.670Z,50.17
2018-07-12T21:09:54.483Z,51.40
2018-07-12T21:12:22.162Z,50.83
2018-07-12T21:14:50.714Z,51.63
2018-07-12T21:17:18.334Z,50.99
2018-07-12T21:19:47.008Z,51.81
2018-07-12T21:22:14.634Z,52.09
2018-07-12T21:24:42.222Z,51.84
2018-07-12T21:27:09.847Z,52.04
2018-07-12T21:29:37.601Z,52.15
2018-07-12T21:32:05.382Z,51.93
2018-07-12T21:34:33.182Z,52.06
2018-07-12T21:37:00.781Z,53.42
2018-07-12T21:39:29.033Z,53.03
2018-07-12T21:41:56.621Z,52.66
2018-07-12T21:44:24.275Z,52.56
2018-07-12T21:46:52.662Z,52.40
2018-07-12T21:49:20.261Z,52.47
2018-07-12T21:51:47.927Z,52.17
2018-07-12T21:54:15.509Z,53.22
2018-07-12T21:56:43.161Z,52.36
2018-07-12T21:59:10.741Z,53.75
2018-07-12T22:01:38.363Z,53.79
2018-07-12T22:04:06.053Z,53.59
2018-07-12T22:07:00.917Z,53.22
2018-07-12T22:09:28.502Z,52.93
2018-07-12T22:11:56.201Z,53.34
2018-07-12T22:14:23.746Z,53.96
2018-07-12T22:16:51.371Z,53.60
2018-07-12T22:19:19.022Z,55.03
2018-07-12T22:21:46.729Z,54.66
2018-07-12T22:24:14.345Z,53.81
2018-07-12T22:26:41.929Z,54.11
2018-07-12T22:29:09.601Z,53.87
2018-07-12T22:31:37.250Z,55.06
2018-07-12T22:34:05.194Z,55.38
2018-07-12T22:36:32.891Z,54.82
2018-07-12T22:39:00.542Z,54.85
2018-07-12T22:41:28.198Z,54.49
2018-07-12T22:43:55.890Z,54.82
2018-07-12T22:46:23.494Z,55.25
2018-07-12T22:48:51.233Z,54.60
2018-07-12T22:51:18.845Z,54.75
2018-07-12T22:53:46.523Z,55.50
2018-07-12T22:56:14.165Z,55.29
2018-07-12T22:58:41.710Z,54.85
2018-07-12T23:01:09.334Z,55.28
2018-07-12T23:03:36.987Z,55.01
2018-07-12T23:06:04.685Z,54.92
2018-07-12T23:08:32.408Z,55.55
2018-07-12T23:11:00.069Z,55.42
2018-07-12T23:13:27.750Z,54.43
2018-07-12T23:15:55.354Z,54.95
2018-07-12T23:18:22.951Z,55.25
2018-07-12T23:20:50.645Z,55.02
2018-07-12T23:23:18.301Z,55.51
2018-07-12T23:25:45.938Z,55.36
2018-07-12T23:28:13.563Z,55.58
2018-07-12T23:30:41.214Z,56.71
2018-07-12T23:33:08.931Z,56.41
2018-07-12T23:35:36.559Z,56.28
2018-07-12T23:38:04.207Z,56.55
2018-07-12T23:40:31.918Z,57.40
2018-07-12T23:43:00.914Z,56.86
2018-07-12T23:45:28.767Z,57.38
2018-07-12T23:47:56.318Z,56.83
2018-07-12T23:50:23.942Z,57.62
2018-07-12T23:52:51.517Z,58.00
2018-07-12T23:55:19.199Z,58.00
2018-07-12T23:57:46.871Z,57.78
